createdAt,value
2023-03-04T00:00:09.804Z,3.80
2023-03-04T00:02:39.262Z,3.07
2023-03-04T00:05:08.431Z,3.07
2023-03-04T00:07:36.538Z,2.73
2023-03-04T00:10:05.063Z,3.03
2023-03-04T00:12:33.026Z,2.97
2023-03-04T00:15:01.303Z,3.03
2023-03-04T00:17:30.249Z,3.00
2023-03-04T00:20:00.322Z,2.83
2023-03-04T00:22:28.300Z,3.20
2023-03-04T00:24:56.320Z,3.00
2023-03-04T00:27:24.390Z,3.17
2023-03-04T00:29:52.383Z,3.37
2023-03-04T00:32:20.638Z,2.77
2023-03-04T00:34:48.745Z,3.30
2023-03-04T00:37:18.097Z,2.77
2023-03-04T00:39:46.785Z,2.87
2023-03-04T00:42:14.768Z,2.60
2023-03-04T00:44:42.707Z,2.60
2023-03-04T00:47:12.378Z,3.10
2023-03-04T00:49:40.552Z,2.97
2023-03-04T00:52:08.630Z,3.23
2023-03-04T00:54:37.982Z,3.50
2023-03-04T00:57:06.086Z,2.83
2023-03-04T00:59:34.265Z,3.17
2023-03-04T01:02:02.397Z,2.47
2023-03-04T01:04:30.476Z,3.23
2023-03-04T01:06:58.370Z,3.00
2023-03-04T01:09:26.872Z,3.03
2023-03-04T01:11:56.256Z,2.40
2023-03-04T01:14:24.458Z,2.83
2023-03-04T01:16:52.820Z,3.07
2023-03-04T01:19:21.390Z,2.87
2023-03-04T01:21:49.787Z,3.13
2023-03-04T01:24:18.016Z,3.03
2023-03-04T01:26:46.014Z,2.83
2023-03-04T01:29:15.420Z,2.73
2023-03-04T01:31:43.623Z,3.30
2023-03-04T01:34:11.534Z,2.80
2023-03-04T01:36:39.531Z,3.10
2023-03-04T01:39:07.631Z,2.23
2023-03-04T01:41:35.751Z,3.30
2023-03-04T01:44:04.381Z,2.77
2023-03-04T01:46:34.253Z,3.17
2023-03-04T01:49:02.291Z,3.30
2023-03-04T01:51:30.395Z,3.20
2023-03-04T01:53:58.437Z,2.53
2023-03-04T01:56:29.618Z,2.70
2023-03-04T01:59:16.255Z,3.07
2023-03-04T02:01:47.946Z,2.93
2023-03-04T02:04:17.586Z,2.90
2023-03-04T02:06:46.770Z,2.83
2023-03-04T02:09:15.941Z,2.67
2023-03-04T02:11:45.169Z,2.93
2023-03-04T02:14:13.948Z,3.80
2023-03-04T02:16:41.948Z,2.60
2023-03-04T02:19:21.525Z,3.30
2023-03-04T02:21:49.692Z,2.57
2023-03-04T02:24:24.223Z,2.17
2023-03-04T02:26:53.797Z,2.53
2023-03-04T02:29:22.342Z,2.90
2023-03-04T02:31:52.353Z,2.50
2023-03-04T02:34:23.635Z,2.63
2023-03-04T02:36:53.758Z,2.73
2023-03-04T02:39:29.088Z,2.87
2023-03-04T02:41:58.757Z,1.87
2023-03-04T02:44:29.198Z,2.30
2023-03-04T02:46:58.158Z,2.50
2023-03-04T02:49:28.503Z,1.90
2023-03-04T02:52:01.686Z,2.33
2023-03-04T02:54:29.923Z,2.40
2023-03-04T02:57:01.162Z,2.80
2023-03-04T02:59:29.581Z,2.80
2023-03-04T03:01:57.979Z,2.77
2023-03-04T03:04:27.380Z,2.17
2023-03-04T03:06:55.479Z,2.27
2023-03-04T03:09:23.785Z,2.50
2023-03-04T03:11:52.187Z,2.23
2023-03-04T03:14:21.741Z,2.57
2023-03-04T03:16:49.801Z,2.10
2023-03-04T03:19:17.979Z,2.00
2023-03-04T03:21:45.923Z,2.47
2023-03-04T03:24:13.817Z,2.60
2023-03-04T03:26:41.825Z,2.50
2023-03-04T03:29:09.845Z,2.67
2023-03-04T03:31:39.442Z,1.60
2023-03-04T03:34:07.472Z,2.80
2023-03-04T03:36:35.566Z,2.53
2023-03-04T03:39:03.552Z,2.43
2023-03-04T03:41:31.674Z,1.80
2023-03-04T03:43:59.711Z,1.90
2023-03-04T03:46:27.861Z,2.30
2023-03-04T03:48:57.344Z,2.13
2023-03-04T03:51:25.333Z,2.73
2023-03-04T03:53:53.344Z,2.30
2023-03-04T03:56:21.663Z,2.10
2023-03-04T03:58:49.673Z,2.63
2023-03-04T04:01:17.648Z,1.97
2023-03-04T04:03:45.691Z,1.70
2023-03-04T04:06:15.167Z,1.80
2023-03-04T04:08:43.493Z,1.87
2023-03-04T04:11:12.481Z,2.00
2023-03-04T04:13:40.485Z,1.50
2023-03-04T04:16:10.388Z,2.00
2023-03-04T04:18:38.969Z,2.07
2023-03-04T04:21:07.805Z,1.73
2023-03-04T04:23:37.165Z,1.70
2023-03-04T04:26:05.454Z,1.70
2023-03-04T04:28:33.568Z,2.30
2023-03-04T04:31:01.586Z,2.07
2023-03-04T04:33:29.834Z,2.33
2023-03-04T04:35:57.833Z,1.80
2023-03-04T04:38:26.098Z,1.97
2023-03-04T04:40:57.555Z,2.20
2023-03-04T04:43:25.802Z,2.00
2023-03-04T04:45:54.067Z,2.07
2023-03-04T04:48:22.214Z,2.77
2023-03-04T04:50:56.105Z,2.53
2023-03-04T04:53:24.126Z,2.00
2023-03-04T04:55:52.110Z,2.23
2023-03-04T04:58:21.599Z,2.10
2023-03-04T05:00:50.056Z,2.20
2023-03-04T05:03:18.846Z,1.93
2023-03-04T05:05:47.238Z,2.60
2023-03-04T05:08:15.453Z,2.47
2023-03-04T05:10:43.433Z,2.53
2023-03-04T05:13:11.475Z,2.30
2023-03-04T05:15:40.997Z,2.80
2023-03-04T05:18:09.089Z,1.93
2023-03-04T05:20:37.530Z,2.13
2023-03-04T05:23:05.818Z,2.10
2023-03-04T05:25:34.082Z,2.30
2023-03-04T05:28:02.897Z,2.13
2023-03-04T05:30:31.050Z,2.33
2023-03-04T05:33:00.381Z,1.70
2023-03-04T05:35:29.187Z,2.13
2023-03-04T05:37:57.297Z,2.00
2023-03-04T05:40:25.760Z,1.90
2023-03-04T05:42:53.808Z,2.17
2023-03-04T05:45:21.825Z,1.90
2023-03-04T05:47:49.988Z,2.50
2023-03-04T05:50:19.981Z,2.47
2023-03-04T05:52:48.116Z,1.93
2023-03-04T05:55:16.864Z,2.27
2023-03-04T05:57:45.737Z,2.10
2023-03-04T06:00:15.533Z,1.90
2023-03-04T06:02:44.828Z,2.10
2023-03-04T06:05:14.800Z,1.83
2023-03-04T06:07:44.964Z,2.43
2023-03-04T06:10:15.557Z,2.50
2023-03-04T06:12:44.094Z,1.93
2023-03-04T06:15:13.018Z,2.00
2023-03-04T06:17:43.046Z,2.00
2023-03-04T06:20:13.087Z,2.37
2023-03-04T06:22:41.138Z,2.00
2023-03-04T06:25:11.276Z,1.53
2023-03-04T06:27:39.410Z,2.57
2023-03-04T06:30:08.635Z,2.33
2023-03-04T06:32:37.028Z,2.10
2023-03-04T06:35:05.852Z,2.47
2023-03-04T06:37:34.052Z,1.47
2023-03-04T06:40:03.545Z,1.97
2023-03-04T06:42:33.006Z,2.33
2023-03-04T06:45:01.449Z,2.00
2023-03-04T06:47:30.154Z,1.80
2023-03-04T06:49:58.159Z,2.20
2023-03-04T06:52:26.384Z,1.33
2023-03-04T06:54:54.322Z,1.80
2023-03-04T06:57:22.385Z,1.70
2023-03-04T06:59:52.043Z,2.17
2023-03-04T07:02:20.263Z,2.10
2023-03-04T07:04:48.536Z,1.73
2023-03-04T07:07:16.825Z,2.17
2023-03-04T07:09:44.790Z,2.07
2023-03-04T07:12:12.899Z,2.37
2023-03-04T07:14:40.956Z,1.90
2023-03-04T07:17:10.361Z,2.73
2023-03-04T07:19:38.481Z,2.53
2023-03-04T07:22:06.481Z,2.60
2023-03-04T07:24:34.559Z,2.70
2023-03-04T07:27:02.606Z,2.70
2023-03-04T07:29:30.705Z,2.70
2023-03-04T07:31:59.094Z,2.47
2023-03-04T07:34:28.940Z,2.87
2023-03-04T07:36:57.195Z,3.07
2023-03-04T07:39:25.306Z,3.13
2023-03-04T07:41:53.548Z,2.97
2023-03-04T07:44:21.825Z,3.50
2023-03-04T07:46:49.866Z,3.70
2023-03-04T07:49:17.976Z,3.93
2023-03-04T07:51:47.372Z,3.13
2023-03-04T07:54:15.646Z,3.80
2023-03-04T07:56:44.614Z,3.63
2023-03-04T07:59:12.606Z,3.53
2023-03-04T08:01:41.025Z,4.40
2023-03-04T08:04:09.348Z,4.07
2023-03-04T08:06:37.463Z,4.90
2023-03-04T08:09:09.856Z,4.07
2023-03-04T08:11:39.471Z,4.47
2023-03-04T08:14:09.248Z,4.03
2023-03-04T08:16:37.325Z,3.50
2023-03-04T08:19:06.327Z,3.53
2023-03-04T08:21:34.651Z,4.73
2023-03-04T08:24:08.439Z,4.33
2023-03-04T08:26:42.163Z,4.57
2023-03-04T08:29:12.050Z,4.07
2023-03-04T08:31:40.398Z,4.47
2023-03-04T08:34:10.637Z,4.10
2023-03-04T08:36:39.069Z,4.03
2023-03-04T08:39:07.453Z,4.37
2023-03-04T08:41:35.589Z,4.10
2023-03-04T08:44:05.361Z,3.90
2023-03-04T08:46:33.493Z,3.53
2023-03-04T08:49:01.558Z,3.73
2023-03-04T08:51:29.769Z,4.73
2023-03-04T08:53:57.965Z,5.33
2023-03-04T08:56:26.652Z,4.37
2023-03-04T08:58:54.849Z,4.23
2023-03-04T09:01:24.303Z,3.93
2023-03-04T09:03:53.408Z,4.07
2023-03-04T09:06:21.515Z,4.70
2023-03-04T09:08:49.829Z,4.20
2023-03-04T09:11:18.180Z,3.97
2023-03-04T09:13:46.285Z,3.80
2023-03-04T09:16:16.083Z,4.37
2023-03-04T09:18:45.531Z,3.43
2023-03-04T09:21:13.598Z,3.70
2023-03-04T09:23:42.255Z,3.73
2023-03-04T09:26:19.085Z,3.47
2023-03-04T09:28:47.139Z,3.63
2023-03-04T09:31:15.835Z,3.60
2023-03-04T09:33:45.708Z,3.73
2023-03-04T09:36:15.739Z,3.93
2023-03-04T09:38:44.605Z,3.60
2023-03-04T09:41:19.537Z,3.93
2023-03-04T09:43:49.611Z,4.63
2023-03-04T09:46:24.051Z,4.00
2023-03-04T09:48:56.826Z,3.50
2023-03-04T09:51:42.743Z,3.60
2023-03-04T09:54:16.371Z,5.47
2023-03-04T09:56:44.455Z,4.13
2023-03-04T09:59:21.120Z,4.33
2023-03-04T10:01:53.052Z,4.17
2023-03-04T10:04:32.568Z,4.30
2023-03-04T10:07:02.446Z,4.47
2023-03-04T10:09:40.897Z,3.47
2023-03-04T10:12:14.497Z,4.57
2023-03-04T10:14:51.067Z,4.20
2023-03-04T10:17:24.935Z,4.67
2023-03-04T10:19:59.368Z,3.13
2023-03-04T10:22:33.072Z,3.00
2023-03-04T10:25:14.737Z,3.50
2023-03-04T10:27:44.013Z,3.03
2023-03-04T10:30:27.995Z,3.50
2023-03-04T10:32:56.514Z,4.00
2023-03-04T10:35:32.456Z,2.50
2023-03-04T10:38:04.554Z,3.43
2023-03-04T10:40:39.847Z,3.80
2023-03-04T10:43:14.481Z,3.57
2023-03-04T10:45:44.770Z,3.57
2023-03-04T10:48:24.113Z,5.30
2023-03-04T10:50:53.684Z,7.20
2023-03-04T10:58:44.310Z,14.17
2023-03-04T11:01:17.753Z,4.57
2023-03-04T11:03:50.701Z,6.53
2023-03-04T11:06:22.090Z,5.20
2023-03-04T11:08:58.232Z,4.33
2023-03-04T11:11:34.493Z,5.47
2023-03-04T11:14:09.708Z,4.47
2023-03-04T11:16:38.084Z,4.00
2023-03-04T11:19:14.381Z,4.97
2023-03-04T11:21:44.210Z,4.20
2023-03-04T11:24:28.064Z,4.07
2023-03-04T11:27:02.902Z,4.20
2023-03-04T11:29:35.206Z,4.10
2023-03-04T11:32:10.484Z,5.10
2023-03-04T11:34:44.046Z,3.73
2023-03-04T11:37:22.448Z,4.43
2023-03-04T11:39:55.714Z,4.27
2023-03-04T11:42:33.104Z,3.77
2023-03-04T11:45:01.231Z,4.33
2023-03-04T11:47:57.555Z,3.83
2023-03-04T11:50:32.543Z,4.17
2023-03-04T11:53:29.069Z,3.70
2023-03-04T11:56:11.424Z,3.97
2023-03-04T11:58:50.780Z,4.07
2023-03-04T12:01:28.744Z,3.90
2023-03-04T12:04:14.956Z,4.47
2023-03-04T12:06:57.089Z,3.63
2023-03-04T12:09:41.248Z,3.70
2023-03-04T12:12:26.743Z,3.37
2023-03-04T12:15:03.344Z,3.57
2023-03-04T12:17:56.170Z,3.57
2023-03-04T12:20:58.478Z,3.70
2023-03-04T12:23:46.749Z,4.00
2023-03-04T12:26:26.732Z,3.87
2023-03-04T12:29:03.142Z,4.33
2023-03-04T12:31:40.154Z,3.93
2023-03-04T12:34:35.008Z,4.17
2023-03-04T12:37:22.787Z,3.70
2023-03-04T12:40:07.339Z,4.57
2023-03-04T12:42:52.044Z,5.10
2023-03-04T12:45:25.442Z,6.03
2023-03-04T12:48:06.599Z,4.60
2023-03-04T12:50:42.898Z,5.33
2023-03-04T12:53:20.362Z,3.70
2023-03-04T12:55:50.798Z,7.70
2023-03-04T12:58:24.720Z,4.83
2023-03-04T13:01:04.622Z,4.67
2023-03-04T13:03:42.056Z,4.20
2023-03-04T13:06:20.759Z,4.73
2023-03-04T13:08:59.528Z,4.50
2023-03-04T13:11:47.129Z,4.00
2023-03-04T13:14:29.731Z,4.30
2023-03-04T13:17:01.772Z,4.53
2023-03-04T13:19:52.687Z,5.20
2023-03-04T13:22:47.179Z,4.40
2023-03-04T13:25:34.703Z,4.13
2023-03-04T13:28:19.886Z,4.70
2023-03-04T13:31:18.622Z,3.70
2023-03-04T13:33:59.144Z,4.37
2023-03-04T13:36:34.386Z,4.10
2023-03-04T13:39:05.282Z,4.40
2023-03-04T13:41:46.873Z,3.47
2023-03-04T13:44:34.250Z,3.37
2023-03-04T13:47:14.972Z,3.20
2023-03-04T13:49:42.997Z,3.07
2023-03-04T13:52:40.421Z,3.43
2023-03-04T13:55:32.109Z,3.47
2023-03-04T13:58:00.145Z,3.27
2023-03-04T14:00:29.728Z,3.27
2023-03-04T14:03:14.047Z,3.93
2023-03-04T14:05:42.402Z,3.77
2023-03-04T14:08:20.391Z,3.57
2023-03-04T14:10:57.070Z,3.53
2023-03-04T14:13:25.567Z,3.43
2023-03-04T14:15:58.229Z,3.73
2023-03-04T14:18:28.594Z,3.27
2023-03-04T14:20:59.950Z,3.60
2023-03-04T14:23:30.911Z,4.87
2023-03-04T14:26:11.729Z,3.70
2023-03-04T14:28:49.132Z,3.70
2023-03-04T14:31:20.324Z,3.57
2023-03-04T14:33:52.022Z,2.97
2023-03-04T14:36:23.496Z,3.87
2023-03-04T14:38:54.851Z,4.10
2023-03-04T14:41:27.121Z,3.80
2023-03-04T14:44:01.668Z,3.73
2023-03-04T14:46:33.893Z,3.83
2023-03-04T14:49:04.553Z,3.20
2023-03-04T14:51:41.693Z,4.00
2023-03-04T14:54:35.252Z,3.50
2023-03-04T14:57:22.202Z,3.53
2023-03-04T14:59:50.499Z,3.23
2023-03-04T15:02:31.322Z,3.50
2023-03-04T15:05:16.572Z,3.50
2023-03-04T15:07:53.045Z,2.67
2023-03-04T15:10:24.822Z,3.03
2023-03-04T15:12:57.534Z,2.70
2023-03-04T15:15:35.372Z,3.83
2023-03-04T15:18:05.539Z,3.40
2023-03-04T15:20:35.034Z,2.90
2023-03-04T15:23:08.409Z,2.80
2023-03-04T15:25:37.236Z,2.33
2023-03-04T15:28:07.160Z,2.63
2023-03-04T15:30:35.994Z,2.60
2023-03-04T15:33:04.109Z,2.20
2023-03-04T15:35:34.785Z,2.30
2023-03-04T15:38:03.167Z,2.53
2023-03-04T15:40:33.472Z,2.10
2023-03-04T15:43:04.948Z,2.50
2023-03-04T15:45:36.211Z,2.53
2023-03-04T15:48:07.922Z,2.80
2023-03-04T15:50:39.534Z,3.20
2023-03-04T15:53:10.079Z,3.13
2023-03-04T15:55:38.461Z,3.00
2023-03-04T15:58:07.717Z,3.73
2023-03-04T16:00:36.268Z,3.50
2023-03-04T16:03:04.560Z,2.83
2023-03-04T16:05:35.050Z,2.47
2023-03-04T16:08:04.509Z,7.00
2023-03-04T16:10:33.546Z,3.13
2023-03-04T16:13:01.664Z,5.03
2023-03-04T16:15:31.161Z,3.00
2023-03-04T16:17:59.668Z,2.70
2023-03-04T16:20:30.811Z,2.90
2023-03-04T16:23:01.407Z,3.07
2023-03-04T16:25:31.221Z,2.67
2023-03-04T16:28:02.736Z,2.10
2023-03-04T16:30:31.832Z,2.60
2023-03-04T16:33:00.164Z,2.93
2023-03-04T16:35:29.228Z,2.83
2023-03-04T16:37:58.549Z,3.60
2023-03-04T16:40:28.919Z,3.77
2023-03-04T16:42:58.687Z,2.67
2023-03-04T16:45:30.257Z,3.57
2023-03-04T16:47:58.486Z,3.00
2023-03-04T16:50:29.934Z,3.50
2023-03-04T16:52:58.900Z,3.20
2023-03-04T16:55:30.193Z,3.50
2023-03-04T16:58:08.013Z,3.37
2023-03-04T17:00:37.248Z,3.00
2023-03-04T17:03:12.707Z,3.33
2023-03-04T17:05:51.017Z,2.50
2023-03-04T17:08:19.335Z,2.87
2023-03-04T17:10:48.967Z,2.70
2023-03-04T17:13:23.237Z,2.43
2023-03-04T17:15:53.646Z,3.40
2023-03-04T17:18:24.450Z,3.37
2023-03-04T17:20:54.001Z,3.50
2023-03-04T17:23:29.964Z,4.27
2023-03-04T17:25:59.365Z,3.33
2023-03-04T17:28:32.233Z,3.27
2023-03-04T17:31:10.638Z,3.23
2023-03-04T17:33:41.176Z,2.57
2023-03-04T17:36:17.815Z,2.80
2023-03-04T17:38:52.840Z,3.17
2023-03-04T17:41:21.889Z,3.47
2023-03-04T17:43:57.019Z,2.63
2023-03-04T17:46:29.295Z,3.80
2023-03-04T17:49:06.406Z,4.50
2023-03-04T17:51:40.140Z,3.43
2023-03-04T17:54:10.189Z,3.53
2023-03-04T17:56:44.564Z,3.40
2023-03-04T17:59:15.560Z,3.43
2023-03-04T18:01:45.197Z,3.23
2023-03-04T18:04:13.737Z,3.47
2023-03-04T18:06:41.922Z,3.10
2023-03-04T18:09:10.435Z,3.73
2023-03-04T18:11:40.407Z,2.90
2023-03-04T18:14:09.033Z,2.80
2023-03-04T18:16:40.542Z,2.53
2023-03-04T18:19:09.631Z,2.17
2023-03-04T18:21:37.854Z,2.70
2023-03-04T18:24:06.991Z,2.33
2023-03-04T18:26:35.430Z,2.40
2023-03-04T18:29:03.515Z,2.80
2023-03-04T18:31:33.161Z,2.87
2023-03-04T18:34:04.657Z,2.40
2023-03-04T18:36:33.759Z,2.23
2023-03-04T18:39:04.530Z,3.03
2023-03-04T18:41:32.705Z,2.90
2023-03-04T18:44:00.797Z,3.00
2023-03-04T18:46:31.975Z,3.00
2023-03-04T18:49:04.760Z,3.97
2023-03-04T18:51:33.047Z,2.93
2023-03-04T18:54:01.075Z,2.90
2023-03-04T18:56:37.729Z,3.23
2023-03-04T18:59:08.369Z,3.13
2023-03-04T19:01:36.460Z,2.80
2023-03-04T19:04:10.420Z,2.47
2023-03-04T19:06:38.413Z,3.03
2023-03-04T19:09:07.645Z,2.87
2023-03-04T19:11:35.686Z,2.70
2023-03-04T19:14:03.890Z,2.43
2023-03-04T19:16:32.372Z,2.90
2023-03-04T19:19:00.401Z,2.60
2023-03-04T19:21:29.722Z,2.77
2023-03-04T19:23:57.878Z,3.00
2023-03-04T19:26:26.000Z,2.67
2023-03-04T19:28:53.931Z,2.60
2023-03-04T19:31:22.064Z,3.17
2023-03-04T19:33:50.166Z,2.50
2023-03-04T19:36:18.375Z,2.60
2023-03-04T19:38:48.891Z,2.67
2023-03-04T19:41:18.111Z,2.87
2023-03-04T19:43:46.170Z,3.70
2023-03-04T19:46:14.991Z,2.70
2023-03-04T19:48:45.050Z,2.03
2023-03-04T19:51:16.821Z,2.73
2023-03-04T19:53:44.996Z,2.40
2023-03-04T19:56:14.614Z,2.83
2023-03-04T19:58:42.733Z,3.50
2023-03-04T20:01:21.476Z,3.00
2023-03-04T20:03:49.726Z,2.53
2023-03-04T20:06:17.734Z,3.03
2023-03-04T20:08:45.786Z,3.27
2023-03-04T20:11:15.181Z,2.80
2023-03-04T20:13:43.111Z,3.60
2023-03-04T20:16:12.861Z,3.53
2023-03-04T20:18:41.916Z,3.70
2023-03-04T20:21:10.291Z,3.40
2023-03-04T20:23:38.365Z,2.77
2023-03-04T20:26:06.521Z,3.10
2023-03-04T20:28:35.996Z,3.13
2023-03-04T20:31:18.231Z,2.57
2023-03-04T20:33:48.516Z,2.93
2023-03-04T20:36:16.499Z,3.07
2023-03-04T20:38:44.519Z,3.00
2023-03-04T20:41:13.100Z,2.77
2023-03-04T20:43:42.435Z,2.83
2023-03-04T20:46:27.708Z,2.97
2023-03-04T20:48:56.477Z,2.87
2023-03-04T20:51:26.224Z,3.40
2023-03-04T20:53:55.423Z,3.27
2023-03-04T20:56:24.140Z,3.43
2023-03-04T20:58:55.341Z,3.33
2023-03-04T21:01:24.886Z,3.10
2023-03-04T21:03:53.244Z,3.03
2023-03-04T21:06:21.374Z,2.67
2023-03-04T21:08:49.504Z,2.40
2023-03-04T21:11:18.415Z,3.00
2023-03-04T21:13:46.642Z,2.53
2023-03-04T21:16:18.385Z,2.23
2023-03-04T21:18:46.429Z,2.27
2023-03-04T21:21:17.450Z,2.50
2023-03-04T21:23:47.027Z,3.10
2023-03-04T21:26:14.998Z,2.53
2023-03-04T21:28:43.667Z,2.40
2023-03-04T21:31:18.732Z,2.40
2023-03-04T21:33:47.838Z,2.67
2023-03-04T21:36:16.750Z,3.20
2023-03-04T21:38:45.392Z,2.80
2023-03-04T21:41:14.845Z,2.60
2023-03-04T21:43:42.834Z,2.53
2023-03-04T21:46:14.674Z,2.90
2023-03-04T21:48:44.829Z,2.60
2023-03-04T21:51:14.963Z,2.93
2023-03-04T21:53:43.385Z,2.87
2023-03-04T21:56:12.272Z,2.90
2023-03-04T21:58:42.319Z,2.93
2023-03-04T22:01:11.611Z,2.90
2023-03-04T22:03:39.869Z,2.90
2023-03-04T22:06:11.051Z,2.80
2023-03-04T22:08:42.375Z,2.97
2023-03-04T22:11:12.559Z,2.10
2023-03-04T22:13:42.132Z,2.63
2023-03-04T22:16:11.022Z,2.07
2023-03-04T22:18:40.890Z,1.97
2023-03-04T22:21:13.093Z,2.50
2023-03-04T22:23:41.664Z,2.30
2023-03-04T22:26:12.652Z,2.67
2023-03-04T22:28:41.400Z,2.57
2023-03-04T22:31:20.508Z,2.60
2023-03-04T22:33:48.958Z,2.50
2023-03-04T22:36:18.512Z,2.33
2023-03-04T22:38:46.595Z,2.90
2023-03-04T22:41:20.060Z,2.63
2023-03-04T22:43:54.005Z,2.40
2023-03-04T22:46:27.812Z,2.37
2023-03-04T22:48:59.381Z,2.30
2023-03-04T22:51:29.427Z,2.30
2023-03-04T22:53:57.952Z,2.40
2023-03-04T22:56:26.331Z,2.20
2023-03-04T22:58:54.476Z,2.30
2023-03-04T23:01:22.720Z,2.60
2023-03-04T23:03:51.823Z,2.17
2023-03-04T23:06:21.886Z,2.53
2023-03-04T23:08:52.204Z,2.47
2023-03-04T23:11:22.062Z,2.43
2023-03-04T23:13:51.205Z,2.33
2023-03-04T23:16:20.298Z,2.60
2023-03-04T23:18:49.160Z,2.50
2023-03-04T23:21:19.929Z,1.90
2023-03-04T23:23:48.540Z,2.70
2023-03-04T23:26:20.293Z,1.90
2023-03-04T23:28:48.347Z,2.03
2023-03-04T23:31:16.624Z,2.17
2023-03-04T23:33:45.748Z,2.33
2023-03-04T23:36:19.836Z,2.50
2023-03-04T23:38:49.251Z,2.20
2023-03-04T23:41:20.258Z,1.93
2023-03-04T23:43:49.291Z,2.23
2023-03-04T23:46:17.264Z,2.40
2023-03-04T23:48:46.862Z,2.10
2023-03-04T23:51:16.292Z,2.30
2023-03-04T23:53:44.310Z,1.87
2023-03-04T23:56:14.517Z,2.50
2023-03-04T23:58:44.058Z,2.30
